Time;durP1;ratioP1;P1;durP2;ratioP2;P2;SDS_P1;SDS_P2;PMS_P1;PMS_P2;Temp;Humidity;BMP_temperature;BMP_pressure;BME280_temperature;BME280_humidity;BME280_pressure;Samples;Min_cycle;Max_cycle;Signal;HPM_P1;HPM_P2
2023/10/28 00:01:36;;;;;;;12.57;6.28;;;;;;;7.79;100.00;99484.03;5091362;28;20053;-76
2023/10/28 00:04:03;;;;;;;8.30;5.80;;;;;;;7.79;100.00;99484.03;5091608;28;20469;-77
2023/10/28 00:06:29;;;;;;;13.45;5.90;;;;;;;7.79;100.00;99481.38;5090977;28;20078;-76
2023/10/28 00:08:56;;;;;;;11.90;5.45;;;;;;;7.79;100.00;99486.69;5092784;28;20052;-76
2023/10/28 00:11:22;;;;;;;7.85;5.72;;;;;;;7.81;100.00;99494.91;5091697;28;20041;-76
2023/10/28 00:13:50;;;;;;;8.77;5.78;;;;;;;7.81;100.00;99494.91;5092774;28;20044;-76
2023/10/28 00:16:16;;;;;;;10.77;6.18;;;;;;;7.83;100.00;99500.50;5093005;28;20050;-76
2023/10/28 00:18:43;;;;;;;10.10;5.72;;;;;;;7.83;100.00;99506.53;5091115;28;20041;-76
2023/10/28 00:21:11;;;;;;;12.95;5.88;;;;;;;7.84;100.00;99505.34;5092880;28;20049;-76
2023/10/28 00:23:38;;;;;;;13.80;5.80;;;;;;;7.85;100.00;99504.16;5090896;28;20094;-77
2023/10/28 00:26:05;;;;;;;10.35;6.05;;;;;;;7.86;100.00;99502.97;5091886;28;20045;-76
2023/10/28 00:28:35;;;;;;;7.38;5.88;;;;;;;7.88;100.00;99503.25;5092223;28;20048;-76
2023/10/28 00:31:03;;;;;;;10.32;5.72;;;;;;;7.89;100.00;99504.72;5091227;28;20040;-76
2023/10/28 00:33:30;;;;;;;12.02;5.97;;;;;;;7.90;100.00;99495.59;5090892;28;20059;-76
2023/10/28 00:35:58;;;;;;;8.45;5.85;;;;;;;7.91;100.00;99506.94;5092147;28;20347;-75
2023/10/28 00:38:25;;;;;;;9.82;6.18;;;;;;;7.91;100.00;99507.66;5091476;28;20052;-76
2023/10/28 00:40:51;;;;;;;11.15;5.63;;;;;;;7.92;100.00;99506.47;5091659;28;20118;-77
2023/10/28 00:43:22;;;;;;;6.93;5.47;;;;;;;7.92;100.00;99511.78;5090748;28;20551;-77
2023/10/28 00:45:49;;;;;;;10.93;5.75;;;;;;;7.92;100.00;99509.13;5092314;28;20045;-76
2023/10/28 00:48:17;;;;;;;9.18;6.07;;;;;;;7.93;100.00;99515.91;5092804;28;20126;-76
2023/10/28 00:50:44;;;;;;;9.80;5.85;;;;;;;7.96;100.00;99511.63;5091506;28;20045;-76
2023/10/28 00:53:11;;;;;;;7.07;5.65;;;;;;;7.96;100.00;99509.69;5092430;28;20482;-76
2023/10/28 00:55:39;;;;;;;10.93;5.70;;;;;;;7.97;100.00;99507.78;5091289;28;20133;-76
2023/10/28 00:58:08;;;;;;;8.32;6.20;;;;;;;7.99;100.00;99511.44;5092330;28;20105;-76
2023/10/28 01:00:35;;;;;;;12.73;5.70;;;;;;;8.00;100.00;99504.22;5090488;28;20119;-76
2023/10/28 01:03:03;;;;;;;8.55;6.03;;;;;;;7.98;100.00;99504.69;5091903;28;20649;-76
2023/10/28 01:05:33;;;;;;;5.85;5.13;;;;;;;7.98;100.00;99507.34;5092149;28;20528;-76
2023/10/28 01:07:59;;;;;;;9.65;5.50;;;;;;;8.00;100.00;99509.50;5090646;28;20048;-76
2023/10/28 01:10:29;;;;;;;9.48;5.93;;;;;;;8.00;100.00;99512.91;5092412;28;20126;-76
2023/10/28 01:12:56;;;;;;;11.55;5.90;;;;;;;8.01;100.00;99508.31;5091479;28;20040;-76
2023/10/28 01:15:24;;;;;;;10.07;5.90;;;;;;;8.02;100.00;99497.28;5092309;28;20087;-76
2023/10/28 01:17:50;;;;;;;13.93;6.18;;;;;;;8.06;100.00;99504.31;5089617;28;20053;-76
2023/10/28 01:20:17;;;;;;;8.85;5.75;;;;;;;8.08;100.00;99501.97;5090449;28;20560;-76
2023/10/28 01:22:44;;;;;;;12.52;5.78;;;;;;;8.11;100.00;99493.84;5091472;28;20051;-76
2023/10/28 01:25:11;;;;;;;16.63;6.05;;;;;;;8.15;100.00;99499.72;5090659;28;20048;-76
2023/10/28 01:27:38;;;;;;;16.60;6.28;;;;;;;8.17;100.00;99494.69;5089867;28;20469;-76
2023/10/28 01:30:06;;;;;;;17.20;5.22;;;;;;;8.20;100.00;99493.06;5092059;28;20114;-77
2023/10/28 01:32:32;;;;;;;12.73;6.13;;;;;;;8.22;100.00;99491.41;5090866;28;20115;-76
2023/10/28 01:34:59;;;;;;;11.80;5.93;;;;;;;8.24;100.00;99490.97;5092212;28;20521;-76
2023/10/28 01:37:26;;;;;;;7.18;5.50;;;;;;;8.28;100.00;99494.91;5094841;28;20506;-77
2023/10/28 01:39:53;;;;;;;8.10;5.65;;;;;;;8.30;100.00;99486.50;5093392;28;20094;-77
2023/10/28 01:42:21;;;;;;;7.63;5.28;;;;;;;8.32;100.00;99495.50;5093995;28;20049;-77
2023/10/28 01:44:49;;;;;;;11.48;5.63;;;;;;;8.33;100.00;99496.97;5093174;28;20401;-76
2023/10/28 01:47:15;;;;;;;10.10;5.95;;;;;;;8.34;100.00;99490.47;5095024;28;20044;-77
2023/10/28 01:49:42;;;;;;;13.00;5.97;;;;;;;8.37;100.00;99496.06;5094503;28;20052;-76
2023/10/28 01:52:11;;;;;;;12.70;6.00;;;;;;;8.41;100.00;99502.63;5093906;28;20048;-77
2023/10/28 01:54:38;;;;;;;8.85;6.00;;;;;;;8.42;100.00;99493.50;5092871;28;20072;-77
2023/10/28 01:57:06;;;;;;;14.52;5.85;;;;;;;8.46;100.00;99490.66;5076701;28;20127;-76
2023/10/28 01:59:38;;;;;;;9.95;5.57;;;;;;;8.47;100.00;99490.22;5092971;28;20048;-77
2023/10/28 02:02:07;;;;;;;12.05;5.93;;;;;;;8.50;100.00;99491.22;5093131;28;20041;-76
2023/10/28 02:04:34;;;;;;;15.73;5.75;;;;;;;8.52;100.00;99492.25;5093327;28;20141;-78
2023/10/28 02:07:01;;;;;;;10.95;5.63;;;;;;;8.54;100.00;99491.78;5095318;28;20116;-77
2023/10/28 02:09:28;;;;;;;8.90;5.60;;;;;;;8.57;100.00;99488.22;5095070;28;20072;-77
2023/10/28 02:11:55;;;;;;;12.55;5.55;;;;;;;8.59;100.00;99491.88;5093567;28;20503;-77
2023/10/28 02:14:24;;;;;;;15.23;5.53;;;;;;;8.60;100.00;99492.63;5076553;28;20050;-77
2023/10/28 02:16:51;;;;;;;13.13;5.47;;;;;;;8.61;100.00;99494.09;5092235;28;20520;-77
2023/10/28 02:19:20;;;;;;;19.67;5.95;;;;;;;8.63;100.00;99497.03;5094776;28;20079;-75
2023/10/28 02:21:49;;;;;;;15.57;5.78;;;;;;;8.66;100.00;99496.09;5092574;28;20059;-76
2023/10/28 02:24:32;;;;;;;9.25;5.80;;;;;;;8.67;100.00;99495.66;5094370;28;20041;-75
2023/10/28 02:26:59;;;;;;;9.25;5.57;;;;;;;8.69;100.00;99492.56;5094774;28;20051;-75
2023/10/28 02:29:25;;;;;;;18.98;6.15;;;;;;;8.70;100.00;99491.38;5094549;28;20806;-76
2023/10/28 02:31:52;;;;;;;12.45;6.15;;;;;;;8.70;100.00;99491.38;5093410;28;20049;-76
2023/10/28 02:34:19;;;;;;;14.55;6.05;;;;;;;8.73;100.00;99481.75;5094644;28;20075;-76
2023/10/28 02:36:46;;;;;;;19.95;5.95;;;;;;;8.75;100.00;99493.38;5093859;28;20049;-76
2023/10/28 02:39:14;;;;;;;17.33;6.03;;;;;;;8.77;100.00;99480.41;5076365;28;20049;-76
2023/10/28 02:41:41;;;;;;;11.88;5.35;;;;;;;8.80;100.00;99481.38;5093829;28;20041;-77
2023/10/28 02:44:07;;;;;;;16.30;5.80;;;;;;;8.81;100.00;99482.84;5092850;28;20132;-76
2023/10/28 02:46:34;;;;;;;13.52;5.70;;;;;;;8.81;100.00;99488.88;5091827;28;20056;-76
2023/10/28 02:49:01;;;;;;;11.38;5.55;;;;;;;8.82;100.00;99485.03;5075279;28;20076;-76
2023/10/28 02:51:28;;;;;;;13.15;6.10;;;;;;;8.84;100.00;99485.31;5093997;28;20047;-76
2023/10/28 02:53:54;;;;;;;9.40;6.28;;;;;;;8.84;100.00;99489.88;5092694;28;20052;-76
2023/10/28 02:56:21;;;;;;;10.90;5.53;;;;;;;8.86;100.00;99482.22;5093362;28;20139;-76
2023/10/28 02:58:47;;;;;;;11.43;5.50;;;;;;;8.85;100.00;99484.13;5093797;28;20127;-75
2023/10/28 03:01:14;;;;;;;11.65;5.50;;;;;;;8.88;100.00;99488.53;5094153;28;20125;-75
2023/10/28 03:03:42;;;;;;;12.25;5.57;;;;;;;8.88;100.00;99477.91;5093479;28;20083;-75
2023/10/28 03:06:09;;;;;;;7.60;4.88;;;;;;;8.89;100.00;99482.03;5094214;28;20052;-75
2023/10/28 03:08:35;;;;;;;10.77;5.45;;;;;;;8.93;100.00;99487.88;5093339;28;20464;-75
2023/10/28 03:11:02;;;;;;;8.77;5.45;;;;;;;8.93;100.00;99477.28;5093910;28;20128;-75
2023/10/28 03:13:28;;;;;;;21.75;4.88;;;;;;;8.95;100.00;99490.09;5091876;28;20529;-75
2023/10/28 03:15:56;;;;;;;8.48;4.82;;;;;;;8.97;100.00;99490.34;5092486;28;20048;-76
2023/10/28 03:18:23;;;;;;;7.85;5.03;;;;;;;8.98;100.00;99497.88;5092252;28;20049;-75
2023/10/28 03:20:50;;;;;;;8.98;4.93;;;;;;;8.99;100.00;99491.38;5091601;28;20041;-75
2023/10/28 03:23:17;;;;;;;9.88;4.30;;;;;;;8.99;100.00;99494.03;5093578;28;20044;-76
2023/10/28 03:25:43;;;;;;;11.65;5.20;;;;;;;9.01;100.00;99496.94;5093333;28;20040;-75
2023/10/28 03:28:10;;;;;;;12.75;4.35;;;;;;;9.03;100.00;99499.88;5093252;28;20460;-75
2023/10/28 03:30:37;;;;;;;10.50;5.00;;;;;;;9.06;100.00;99502.81;5093089;28;20052;-75
2023/10/28 03:33:03;;;;;;;15.45;4.90;;;;;;;9.08;100.00;99505.75;5093523;28;20044;-76
2023/10/28 03:35:30;;;;;;;10.60;4.82;;;;;;;9.09;100.00;99499.97;5093264;28;20040;-76
2023/10/28 03:37:57;;;;;;;21.35;4.78;;;;;;;9.12;100.00;99500.97;5092906;28;20123;-76
2023/10/28 03:40:24;;;;;;;8.68;4.13;;;;;;;9.13;100.00;99511.16;5093443;28;20037;-76
2023/10/28 03:42:50;;;;;;;16.35;4.53;;;;;;;9.15;100.00;99508.03;5074278;28;20053;-76
2023/10/28 03:45:17;;;;;;;9.07;4.40;;;;;;;9.15;100.00;99503.47;5093594;28;20041;-76
2023/10/28 03:47:44;;;;;;;8.23;4.32;;;;;;;9.17;100.00;99500.34;5091355;28;20052;-75
2023/10/28 03:50:10;;;;;;;15.75;4.68;;;;;;;9.17;100.00;99493.09;5093320;28;20076;-75
2023/10/28 03:52:37;;;;;;;12.60;4.40;;;;;;;9.18;100.00;99488.53;5091081;28;20520;-76
2023/10/28 03:55:04;;;;;;;13.32;4.47;;;;;;;9.19;100.00;99493.38;5092830;28;20076;-76
2023/10/28 03:57:30;;;;;;;11.93;4.18;;;;;;;9.21;100.00;99495.56;5092566;28;20055;-76
2023/10/28 03:59:58;;;;;;;8.23;4.22;;;;;;;9.23;100.00;99498.47;5091862;28;20048;-75
2023/10/28 04:02:28;;;;;;;11.23;4.47;;;;;;;9.23;100.00;99498.47;5093249;28;20044;-75
2023/10/28 04:04:55;;;;;;;9.38;4.18;;;;;;;9.23;100.00;99488.59;5093164;28;20569;-75
2023/10/28 04:07:22;;;;;;;11.57;4.22;;;;;;;9.24;100.00;99487.41;5093162;28;20473;-76
2023/10/28 04:09:48;;;;;;;10.68;4.13;;;;;;;9.27;100.00;99488.41;5092355;28;20032;-76
2023/10/28 04:12:15;;;;;;;8.13;3.95;;;;;;;9.26;100.00;99485.03;5092856;28;20056;-76
2023/10/28 04:14:42;;;;;;;11.80;4.70;;;;;;;9.27;100.00;99486.50;5092602;28;20064;-76
2023/10/28 04:17:08;;;;;;;5.60;4.15;;;;;;;9.28;100.00;99487.22;5093072;28;20532;-76
2023/10/28 04:19:35;;;;;;;11.98;3.75;;;;;;;9.28;100.00;99484.56;5092059;28;20045;-76
2023/10/28 04:22:02;;;;;;;6.57;4.47;;;;;;;9.27;100.00;99486.50;5092992;28;20501;-76
2023/10/28 04:24:29;;;;;;;5.30;3.80;;;;;;;9.28;100.00;99489.88;5092727;28;20559;-76
2023/10/28 04:26:55;;;;;;;9.48;3.97;;;;;;;9.28;100.00;99487.94;5090679;28;20406;-76
2023/10/28 04:29:22;;;;;;;5.15;3.90;;;;;;;9.27;100.00;99483.84;5092722;28;20064;-76
2023/10/28 04:31:48;;;;;;;5.82;4.15;;;;;;;9.28;100.00;99492.53;5092377;28;20080;-76
2023/10/28 04:34:15;;;;;;;11.00;4.60;;;;;;;9.28;100.00;99492.53;5092689;28;20493;-77
2023/10/28 04:36:43;;;;;;;5.78;4.38;;;;;;;9.27;100.00;99483.84;5092108;28;20060;-76
2023/10/28 04:39:10;;;;;;;6.82;4.32;;;;;;;9.24;100.00;99478.72;5092626;28;20044;-77
2023/10/28 04:41:36;;;;;;;6.53;4.00;;;;;;;9.21;100.00;99479.63;5091576;28;20044;-76
2023/10/28 04:44:03;;;;;;;4.07;3.67;;;;;;;9.19;100.00;99477.44;5092767;28;20048;-77
2023/10/28 04:46:30;;;;;;;8.02;4.07;;;;;;;9.19;100.00;99480.09;5092594;28;20371;-76
2023/10/28 04:48:57;;;;;;;4.30;3.63;;;;;;;9.20;100.00;99480.81;5092010;28;20080;-77
2023/10/28 04:51:24;;;;;;;7.03;3.67;;;;;;;9.20;100.00;99476.22;5092684;28;20052;-76
2023/10/28 04:53:51;;;;;;;8.32;3.78;;;;;;;9.21;100.00;99477.69;5090439;28;20058;-76
2023/10/28 04:56:18;;;;;;;6.18;3.50;;;;;;;9.23;100.00;99477.25;5089860;28;20110;-76
2023/10/28 04:58:45;;;;;;;8.80;4.07;;;;;;;9.23;100.00;99477.25;5091736;28;20462;-76
2023/10/28 05:01:11;;;;;;;4.88;3.30;;;;;;;9.24;100.00;99478.72;5092314;28;20041;-76
2023/10/28 05:03:38;;;;;;;7.97;3.58;;;;;;;9.25;100.00;99477.50;5091760;28;20132;-76
2023/10/28 05:06:07;;;;;;;4.90;3.30;;;;;;;9.25;100.00;99478.25;5090975;28;20044;-76
2023/10/28 05:08:36;;;;;;;5.72;3.67;;;;;;;9.26;100.00;99471.00;5090021;28;20059;-77
2023/10/28 05:11:03;;;;;;;5.43;3.35;;;;;;;9.26;100.00;99473.66;5092409;28;20501;-76
2023/10/28 05:13:30;;;;;;;5.38;3.25;;;;;;;9.26;100.00;99473.66;5095666;28;20418;-76
2023/10/28 05:15:58;;;;;;;4.75;3.50;;;;;;;9.27;100.00;99477.78;5095494;28;20566;-76
2023/10/28 05:18:26;;;;;;;5.20;3.55;;;;;;;9.27;100.00;99475.13;5094392;28;20088;-76
2023/10/28 05:20:53;;;;;;;4.78;3.13;;;;;;;9.29;100.00;99488.69;5094995;28;20049;-76
2023/10/28 05:23:20;;;;;;;4.90;3.20;;;;;;;9.28;100.00;99477.31;5095793;28;20096;-76
2023/10/28 05:25:46;;;;;;;6.70;3.13;;;;;;;9.29;100.00;99475.41;5094523;28;20091;-76
2023/10/28 05:28:13;;;;;;;3.10;2.80;;;;;;;9.28;100.00;99473.94;5095211;28;20500;-76
2023/10/28 05:30:39;;;;;;;4.65;3.00;;;;;;;9.30;100.00;99474.22;5095057;28;20041;-75
2023/10/28 05:33:06;;;;;;;4.60;3.20;;;;;;;9.29;100.00;99480.72;5095541;28;20486;-76
2023/10/28 05:35:32;;;;;;;3.17;2.72;;;;;;;9.30;100.00;99474.94;5094619;28;20044;-75
2023/10/28 05:37:59;;;;;;;4.40;2.97;;;;;;;9.30;100.00;99474.94;5095524;28;20048;-75
2023/10/28 05:40:25;;;;;;;4.55;3.00;;;;;;;9.31;100.00;99478.34;5095022;28;20048;-76
2023/10/28 05:42:52;;;;;;;4.55;2.55;;;;;;;9.30;100.00;99472.28;5094466;28;20718;-77
2023/10/28 05:45:18;;;;;;;4.22;3.20;;;;;;;9.30;100.00;99472.28;5095580;28;20083;-77
2023/10/28 05:47:46;;;;;;;5.45;2.97;;;;;;;9.31;100.00;99475.69;5095050;28;20087;-77
2023/10/28 05:50:13;;;;;;;3.25;2.95;;;;;;;9.31;100.00;99476.41;5095222;28;20049;-78
2023/10/28 05:52:40;;;;;;;3.83;2.75;;;;;;;9.31;100.00;99478.34;5093168;28;20098;-78
2023/10/28 05:55:12;;;;;;;3.30;2.60;;;;;;;9.31;100.00;99471.09;5094467;28;20128;-77
2023/10/28 05:57:40;;;;;;;6.50;3.05;;;;;;;9.32;100.00;99477.13;5094761;28;20048;-76
2023/10/28 06:00:10;;;;;;;5.35;2.92;;;;;;;9.32;100.00;99477.88;5095168;28;20543;-77
2023/10/28 06:02:38;;;;;;;4.15;3.08;;;;;;;9.32;100.00;99482.47;5094878;28;20484;-76
2023/10/28 06:05:06;;;;;;;5.18;3.05;;;;;;;9.33;100.00;99491.88;5095345;28;20045;-76
2023/10/28 06:07:33;;;;;;;7.13;3.40;;;;;;;9.31;100.00;99484.38;5093940;28;20049;-76
2023/10/28 06:10:00;;;;;;;8.63;3.25;;;;;;;9.32;100.00;99485.09;5094690;28;20051;-76
2023/10/28 06:12:26;;;;;;;5.20;2.97;;;;;;;9.30;100.00;99487.50;5094877;28;20041;-76
2023/10/28 06:14:53;;;;;;;3.38;3.10;;;;;;;9.30;100.00;99479.53;5094223;28;20408;-77
2023/10/28 06:17:24;;;;;;;8.05;3.83;;;;;;;9.30;100.00;99492.81;5094745;28;20545;-76
2023/10/28 06:19:50;;;;;;;7.25;3.03;;;;;;;9.29;100.00;99486.75;5094308;28;20127;-76
2023/10/28 06:22:17;;;;;;;4.68;2.72;;;;;;;9.30;100.00;99487.50;5093284;28;20040;-76
2023/10/28 06:24:43;;;;;;;5.55;3.03;;;;;;;9.30;100.00;99482.19;5092520;28;20139;-75
2023/10/28 06:27:10;;;;;;;4.88;2.90;;;;;;;9.31;100.00;99483.66;5094587;28;20068;-76
2023/10/28 06:29:37;;;;;;;8.93;3.13;;;;;;;9.30;100.00;99482.91;5094111;28;20045;-76
2023/10/28 06:32:06;;;;;;;4.38;2.80;;;;;;;9.31;100.00;99488.97;5094922;28;20498;-76
2023/10/28 06:34:33;;;;;;;10.18;2.75;;;;;;;9.30;100.00;99487.50;5094032;28;20048;-79
2023/10/28 06:37:00;;;;;;;5.65;3.15;;;;;;;9.31;100.00;99500.31;5075830;28;20080;-76
2023/10/28 06:39:27;;;;;;;8.45;2.55;;;;;;;9.31;100.00;99488.97;5093000;28;20075;-76
2023/10/28 06:41:53;;;;;;;4.13;3.13;;;;;;;9.32;100.00;99493.81;5092556;28;20051;-75
2023/10/28 06:44:23;;;;;;;3.25;2.70;;;;;;;9.33;100.00;99494.53;5094100;28;20102;-76
2023/10/28 06:46:49;;;;;;;6.32;3.05;;;;;;;9.34;100.00;99493.34;5093911;28;20045;-76
2023/10/28 06:49:16;;;;;;;4.47;3.10;;;;;;;9.34;100.00;99488.03;5092806;28;20055;-75
2023/10/28 06:51:43;;;;;;;4.40;2.83;;;;;;;9.35;100.00;99494.81;5091650;28;20071;-75
2023/10/28 06:54:10;;;;;;;3.28;2.95;;;;;;;9.37;100.00;99492.44;5094392;28;20071;-75
2023/10/28 06:56:37;;;;;;;4.13;2.65;;;;;;;9.38;100.00;99493.91;5091550;28;20482;-76
2023/10/28 06:59:03;;;;;;;5.88;2.97;;;;;;;9.40;100.00;99496.81;5092147;28;20051;-75
2023/10/28 07:01:30;;;;;;;5.32;3.05;;;;;;;9.41;100.00;99492.25;5092744;28;20493;-75
2023/10/28 07:03:57;;;;;;;6.43;2.75;;;;;;;9.43;100.00;99497.84;5091434;28;20539;-77
2023/10/28 07:06:23;;;;;;;5.47;3.00;;;;;;;9.43;100.00;99495.91;5092221;28;20049;-77
2023/10/28 07:08:50;;;;;;;4.72;2.85;;;;;;;9.44;100.00;99501.94;5092433;28;20049;-77
2023/10/28 07:11:17;;;;;;;14.02;3.53;;;;;;;9.46;100.00;99500.31;5091795;28;20079;-77
2023/10/28 07:13:44;;;;;;;2.95;2.65;;;;;;;9.48;100.00;99505.16;5092380;28;20119;-76
2023/10/28 07:16:11;;;;;;;6.22;3.47;;;;;;;9.50;100.00;99498.19;5092786;28;20048;-77
2023/10/28 07:18:38;;;;;;;4.10;3.45;;;;;;;9.53;100.00;99499.94;5091626;28;20421;-76
2023/10/28 07:21:04;;;;;;;3.55;2.60;;;;;;;9.54;100.00;99503.31;5090722;28;20509;-77
2023/10/28 07:23:31;;;;;;;4.90;2.88;;;;;;;9.56;100.00;99506.25;5091917;28;20048;-77
2023/10/28 07:26:02;;;;;;;6.72;2.78;;;;;;;9.58;100.00;99503.84;5091661;28;20049;-76
2023/10/28 07:28:36;;;;;;;4.38;3.05;;;;;;;9.61;100.00;99511.63;5092773;28;20072;-77
2023/10/28 07:31:03;;;;;;;5.88;2.80;;;;;;;9.66;100.00;99508.31;5093067;28;20128;-77
2023/10/28 07:33:30;;;;;;;7.22;2.92;;;;;;;9.71;100.00;99514.91;5092292;28;20049;-76
2023/10/28 07:35:57;;;;;;;3.95;2.97;;;;;;;9.76;100.00;99510.84;5092197;28;20119;-77
2023/10/28 07:38:23;;;;;;;5.60;3.15;;;;;;;9.79;100.00;99513.31;5092680;28;20484;-76
2023/10/28 07:40:50;;;;;;;4.22;2.72;;;;;;;9.83;100.00;99505.16;5092025;28;20058;-77
2023/10/28 07:43:20;;;;;;;5.47;2.75;;;;;;;9.87;100.00;99506.41;5093008;28;20064;-77
2023/10/28 07:45:47;;;;;;;2.78;2.50;;;;;;;9.92;100.00;99513.00;5091644;28;20076;-76
2023/10/28 07:48:14;;;;;;;4.43;2.80;;;;;;;9.95;100.00;99520.06;5092811;28;20098;-77
2023/10/28 07:50:42;;;;;;;4.57;3.13;;;;;;;9.98;100.00;99527.09;5091287;28;20413;-77
2023/10/28 07:53:09;;;;;;;5.70;2.72;;;;;;;9.97;100.00;99530.97;5092434;28;20450;-76
2023/10/28 07:55:38;;;;;;;3.83;2.53;;;;;;;9.97;100.00;99523.00;5091821;28;20053;-75
2023/10/28 07:58:08;;;;;;;2.63;2.42;;;;;;;9.99;100.00;99531.97;5092555;28;20132;-77
2023/10/28 08:00:36;;;;;;;3.15;2.60;;;;;;;10.00;100.00;99530.00;5091587;28;20036;-75
2023/10/28 08:03:03;;;;;;;4.50;2.80;;;;;;;10.00;100.00;99540.66;5092402;28;20044;-75
2023/10/28 08:05:30;;;;;;;4.28;2.50;;;;;;;10.01;100.00;99534.13;5091737;28;20493;-76
2023/10/28 08:07:57;;;;;;;4.53;2.55;;;;;;;9.99;100.00;99537.28;5092375;28;20043;-76
2023/10/28 08:10:23;;;;;;;4.10;2.58;;;;;;;9.98;100.00;99538.47;5090834;28;20489;-75
2023/10/28 08:12:51;;;;;;;2.55;2.30;;;;;;;10.00;100.00;99540.66;5091807;28;20037;-75
2023/10/28 08:15:20;;;;;;;6.78;2.65;;;;;;;10.00;100.00;99544.03;5090656;28;20056;-76
2023/10/28 08:17:46;;;;;;;5.43;2.55;;;;;;;10.00;100.00;99541.38;5091660;28;20044;-78
2023/10/28 08:20:17;;;;;;;2.70;2.35;;;;;;;10.01;100.00;99548.16;5091688;28;20124;-78
2023/10/28 08:22:45;;;;;;;2.88;2.33;;;;;;;10.05;100.00;99545.31;5091470;28;20044;-77
2023/10/28 08:25:15;;;;;;;3.88;2.40;;;;;;;10.04;100.00;99549.88;5092142;28;20421;-76
2023/10/28 08:27:47;;;;;;;8.60;2.03;;;;;;;10.06;100.00;99549.44;5091783;28;20140;-77
2023/10/28 08:30:17;;;;;;;3.22;2.67;;;;;;;10.07;100.00;99550.16;5093190;28;20562;-76
2023/10/28 08:32:44;;;;;;;5.20;2.45;;;;;;;10.07;100.00;99544.84;5091604;28;20445;-77
2023/10/28 08:35:11;;;;;;;5.60;2.45;;;;;;;10.07;100.00;99556.22;5092860;28;20076;-77
2023/10/28 08:37:38;;;;;;;7.85;2.70;;;;;;;10.11;100.00;99551.44;5092148;28;20049;-76
2023/10/28 08:40:08;;;;;;;4.35;2.00;;;;;;;10.14;100.00;99552.44;5092622;28;20395;-76
2023/10/28 08:42:35;;;;;;;4.70;2.30;;;;;;;10.17;100.00;99549.56;5091842;28;20560;-76
2023/10/28 08:45:03;;;;;;;6.03;2.13;;;;;;;10.19;100.00;99552.53;5092662;28;20125;-76
2023/10/28 08:47:36;;;;;;;5.82;2.20;;;;;;;10.24;100.00;99549.22;5093314;28;20110;-76
2023/10/28 08:50:07;;;;;;;4.53;2.28;;;;;;;10.28;100.00;99549.75;5096298;28;20037;-76
2023/10/28 08:52:38;;;;;;;5.43;2.70;;;;;;;10.38;100.00;99546.97;5095561;28;20124;-76
2023/10/28 08:55:10;;;;;;;6.60;2.30;;;;;;;10.46;100.00;99543.41;5095612;28;20048;-77
2023/10/28 08:57:43;;;;;;;4.20;2.50;;;;;;;10.54;100.00;99549.06;5095514;28;20521;-77
2023/10/28 09:00:17;;;;;;;6.22;2.33;;;;;;;10.57;100.00;99546.22;5096354;28;20086;-76
2023/10/28 09:02:45;;;;;;;2.55;2.20;;;;;;;10.63;100.00;99554.97;5093363;28;20554;-76
2023/10/28 09:05:16;;;;;;;4.63;2.20;;;;;;;10.67;100.00;99546.81;5094355;28;20045;-76
2023/10/28 09:07:43;;;;;;;11.23;2.90;;;;;;;10.69;100.00;99552.38;5093700;28;20464;-77
2023/10/28 09:10:10;;;;;;;2.67;2.35;;;;;;;10.71;100.00;99552.66;5095728;28;20482;-77
2023/10/28 09:12:37;;;;;;;6.10;2.20;;;;;;;10.75;100.00;99555.09;5093646;28;20098;-77
2023/10/28 09:15:04;;;;;;;8.60;2.67;;;;;;;10.75;100.00;99555.84;5095270;28;20108;-77
2023/10/28 09:17:31;;;;;;;3.80;1.85;;;;;;;10.77;100.00;99556.09;5094570;28;20123;-76
2023/10/28 09:19:57;;;;;;;6.32;2.38;;;;;;;10.79;100.00;99561.69;5098295;28;20051;-76
2023/10/28 09:22:24;;;;;;;5.13;2.47;;;;;;;10.81;100.00;99559.28;5115813;27;20505;-76
2023/10/28 09:24:54;;;;;;;5.88;2.40;;;;;;;10.83;100.00;99569.44;5114705;27;20043;-77
2023/10/28 09:27:21;;;;;;;7.47;2.58;;;;;;;10.84;100.00;99562.94;5115807;27;20043;-77
2023/10/28 09:29:48;;;;;;;5.68;2.10;;;;;;;10.90;100.00;99574.38;5114696;27;20087;-76
2023/10/28 09:32:18;;;;;;;7.32;2.00;;;;;;;10.92;100.00;99569.31;5113967;28;20040;-79
2023/10/28 09:34:44;;;;;;;5.20;2.08;;;;;;;10.97;100.00;99574.69;5114635;27;20516;-77
2023/10/28 09:37:12;;;;;;;12.52;2.97;;;;;;;11.05;100.00;99576.94;5111505;27;20474;-76
2023/10/28 09:39:41;;;;;;;5.10;1.83;;;;;;;11.12;100.00;99577.25;5092656;28;20056;-76
2023/10/28 09:42:09;;;;;;;7.30;2.08;;;;;;;11.18;100.00;99575.38;5095036;28;20036;-76
2023/10/28 09:44:36;;;;;;;6.35;2.10;;;;;;;11.27;100.00;99574.47;5094184;28;20040;-76
2023/10/28 09:47:05;;;;;;;8.88;2.58;;;;;;;11.36;100.00;99576.97;5094463;28;20040;-76
2023/10/28 09:49:32;;;;;;;4.90;1.77;;;;;;;11.41;100.00;99578.22;5094497;28;20049;-80
2023/10/28 09:52:05;;;;;;;3.22;1.75;;;;;;;11.43;100.00;99581.16;5095043;28;20056;-78
2023/10/28 09:54:35;;;;;;;4.28;1.73;;;;;;;11.50;100.00;99580.72;5094215;28;20130;-76
2023/10/28 09:57:02;;;;;;;8.43;2.25;;;;;;;11.55;100.00;99582.69;5092071;28;20060;-77
2023/10/28 09:59:33;;;;;;;3.17;1.90;;;;;;;11.56;100.00;99582.22;5093156;28;20050;-76
2023/10/28 10:02:34;;;;;;;4.13;2.10;;;;;;;11.58;100.00;99579.81;5095090;28;20094;-76
2023/10/28 10:05:07;;;;;;;10.27;2.10;;;;;;;11.55;100.00;99583.44;5094399;28;20158;-75
2023/10/28 10:07:34;;;;;;;4.85;1.77;;;;;;;11.55;100.00;99580.03;5092634;28;20402;-78
2023/10/28 10:10:13;;;;;;;3.95;1.77;;;;;;;11.52;100.00;99589.72;5094631;28;20041;-78
2023/10/28 10:12:40;;;;;;;6.18;1.77;;;;;;;11.51;100.00;99590.91;5094319;28;20128;-76
2023/10/28 10:15:19;;;;;;;4.05;1.85;;;;;;;11.50;100.00;99589.44;5092646;28;20127;-76
2023/10/28 10:18:21;;;;;;;8.27;2.10;;;;;;;11.51;100.00;99600.84;5093893;28;20044;-75
2023/10/28 10:20:48;;;;;;;6.10;1.90;;;;;;;11.56;100.00;99595.56;5082899;28;20134;-76
2023/10/28 10:23:15;;;;;;;6.40;2.42;;;;;;;11.65;100.00;99599.97;5094336;28;20171;-76
2023/10/28 10:25:46;;;;;;;6.60;1.90;;;;;;;11.70;100.00;99597.34;5092173;28;20041;-77
2023/10/28 10:28:19;;;;;;;5.95;2.22;;;;;;;11.74;100.00;99599.06;5094183;28;20036;-77
2023/10/28 10:30:45;;;;;;;2.95;1.65;;;;;;;11.80;100.00;99597.94;5092340;28;20047;-77
2023/10/28 10:33:12;;;;;;;6.13;1.80;;;;;;;11.84;100.00;99590.44;5095224;28;20051;-77
2023/10/28 10:35:47;;;;;;;10.27;1.80;;;;;;;11.92;100.00;99591.47;5093325;28;20106;-76
2023/10/28 10:38:14;;;;;;;4.57;1.77;;;;;;;12.01;100.00;99593.19;5092838;28;20520;-76
2023/10/28 10:40:41;;;;;;;4.00;1.73;;;;;;;12.08;100.00;99592.75;5093346;28;20061;-76
2023/10/28 10:43:09;;;;;;;6.38;2.17;;;;;;;12.11;100.00;99594.47;5093510;28;20043;-76
2023/10/28 10:45:36;;;;;;;3.95;2.00;;;;;;;12.20;100.00;99588.94;5093388;28;20545;-81
2023/10/28 10:48:06;;;;;;;4.57;1.80;;;;;;;12.23;100.00;99597.94;5094089;28;20051;-76
2023/10/28 10:50:34;;;;;;;7.93;2.03;;;;;;;12.32;100.00;99585.13;5092939;28;20036;-76
2023/10/28 10:53:03;;;;;;;2.65;1.70;;;;;;;12.33;100.00;99583.19;5093785;28;20059;-76
2023/10/28 10:55:30;;;;;;;2.88;1.70;;;;;;;12.30;100.00;99590.22;5092569;28;20064;-75
2023/10/28 10:57:59;;;;;;;3.72;1.80;;;;;;;12.32;100.00;99590.47;5092199;28;20425;-76
2023/10/28 11:00:26;;;;;;;5.55;1.60;;;;;;;12.38;100.00;99585.16;5091717;28;20045;-75
2023/10/28 11:02:58;;;;;;;7.28;1.90;;;;;;;12.43;100.00;99581.03;5093054;28;20134;-77
2023/10/28 11:05:30;;;;;;;4.95;2.17;;;;;;;12.46;100.00;99583.47;5093482;28;20044;-76
2023/10/28 11:07:57;;;;;;;3.83;1.85;;;;;;;12.46;100.00;99590.75;5091724;28;20055;-76
2023/10/28 11:10:25;;;;;;;5.63;1.85;;;;;;;12.50;100.00;99591.25;5091998;28;20049;-76
2023/10/28 11:12:52;;;;;;;4.25;1.60;;;;;;;12.55;100.00;99595.88;5092128;28;20473;-76
2023/10/28 11:15:22;;;;;;;3.15;1.88;;;;;;;12.63;100.00;99592.28;5093208;28;20051;-75
2023/10/28 11:17:52;;;;;;;2.47;1.77;;;;;;;12.69;100.00;99585.03;5092609;28;20463;-76
2023/10/28 11:20:20;;;;;;;4.63;1.85;;;;;;;12.76;100.00;99585.78;5093350;28;20045;-76
2023/10/28 11:22:47;;;;;;;4.63;2.00;;;;;;;12.80;100.00;99580.91;5091138;28;20056;-77
2023/10/28 11:25:14;;;;;;;4.60;1.75;;;;;;;12.79;100.00;99582.13;5093043;28;20049;-76
2023/10/28 11:27:41;;;;;;;8.35;2.20;;;;;;;12.77;100.00;99582.63;5091939;28;20134;-76
2023/10/28 11:30:08;;;;;;;3.70;1.60;;;;;;;12.76;100.00;99575.09;5092925;28;20041;-76
2023/10/28 11:32:41;;;;;;;7.18;2.00;;;;;;;12.78;100.00;99575.34;5074125;28;20107;-76